createdAt,value
2023-05-10T00:05:53.637Z,35.93
2023-05-10T00:08:27.006Z,35.90
2023-05-10T00:11:05.650Z,36.37
2023-05-10T00:13:39.118Z,36.11
2023-05-10T00:16:13.730Z,35.78
2023-05-10T00:18:47.031Z,36.21
2023-05-10T00:21:22.655Z,35.99
2023-05-10T00:31:49.679Z,36.16
2023-05-10T00:34:29.648Z,36.43
2023-05-10T00:37:04.861Z,36.54
2023-05-10T00:39:39.676Z,36.65
2023-05-10T00:42:12.966Z,36.61
2023-05-10T00:44:46.641Z,36.64
2023-05-10T00:47:20.196Z,36.37
2023-05-10T01:00:12.623Z,36.32
2023-05-10T01:02:52.747Z,37.14
2023-05-10T01:05:26.140Z,36.63
2023-05-10T01:07:59.655Z,37.32
2023-05-10T01:10:33.223Z,36.84
2023-05-10T01:13:07.664Z,37.13
2023-05-10T01:27:14.642Z,37.24
2023-05-10T01:30:36.184Z,37.53
2023-05-10T01:33:26.629Z,37.36
2023-05-10T01:36:09.610Z,37.59
2023-05-10T01:38:56.653Z,37.57
2023-05-10T01:41:42.272Z,37.62
2023-05-10T01:51:57.620Z,37.74
2023-05-10T01:54:36.213Z,37.81
2023-05-10T01:57:20.685Z,38.09
2023-05-10T01:59:56.938Z,38.02
2023-05-10T02:02:32.688Z,38.35
2023-05-10T02:05:08.597Z,38.12
2023-05-10T02:07:43.646Z,38.22
2023-05-10T02:20:55.637Z,38.25
2023-05-10T02:23:31.066Z,38.64
2023-05-10T02:26:07.627Z,38.59
2023-05-10T02:28:42.923Z,38.52
2023-05-10T02:31:18.639Z,38.67
2023-05-10T02:47:55.646Z,38.87
2023-05-10T02:50:39.649Z,39.20
2023-05-10T02:53:23.426Z,39.04
2023-05-10T02:56:10.634Z,39.08
2023-05-10T02:58:44.051Z,39.00
2023-05-10T03:01:23.676Z,39.39
2023-05-10T03:14:52.640Z,39.53
2023-05-10T03:17:39.705Z,39.45
2023-05-10T03:20:29.661Z,39.32
2023-05-10T03:23:11.484Z,39.69
2023-05-10T03:25:55.653Z,39.68
2023-05-10T03:39:07.674Z,39.96
2023-05-10T03:41:41.008Z,39.98
2023-05-10T03:44:14.637Z,40.13
2023-05-10T03:46:48.047Z,40.25
2023-05-10T03:49:21.870Z,40.08
2023-05-10T03:51:55.014Z,40.30
2023-05-10T04:08:10.647Z,40.45
2023-05-10T04:10:44.047Z,40.62
2023-05-10T04:13:17.679Z,40.76
2023-05-10T04:15:50.868Z,40.89
2023-05-10T04:18:24.636Z,40.72
2023-05-10T04:20:58.213Z,40.91
2023-05-10T04:33:48.609Z,40.95
2023-05-10T04:36:28.630Z,41.11
2023-05-10T04:39:02.073Z,41.25
2023-05-10T04:41:35.625Z,41.20
2023-05-10T04:44:09.064Z,41.25
2023-05-10T04:46:42.694Z,41.14
2023-05-10T04:59:54.642Z,41.42
2023-05-10T05:02:27.966Z,41.46
2023-05-10T05:05:03.661Z,41.25
2023-05-10T05:07:36.899Z,41.25
2023-05-10T05:10:11.662Z,41.38
2023-05-10T05:12:44.921Z,41.54
2023-05-10T05:26:06.656Z,41.34
2023-05-10T05:28:39.904Z,41.21
2023-05-10T05:31:14.673Z,41.13
2023-05-10T05:33:47.987Z,41.38
2023-05-10T05:36:21.664Z,41.10
2023-05-10T05:38:54.935Z,41.06
2023-05-10T05:55:12.677Z,41.09
2023-05-10T05:57:45.906Z,41.29
2023-05-10T06:00:20.644Z,41.32
2023-05-10T06:02:53.956Z,41.31
2023-05-10T06:05:27.650Z,41.36
2023-05-10T06:08:01.113Z,41.12
2023-05-10T06:20:51.634Z,41.30
2023-05-10T06:23:31.634Z,41.27
2023-05-10T06:26:05.037Z,41.47
2023-05-10T06:28:38.633Z,41.00
2023-05-10T06:31:11.933Z,41.37
2023-05-10T06:33:45.673Z,41.25
2023-05-10T06:46:57.682Z,41.26
2023-05-10T06:49:30.943Z,41.16
2023-05-10T06:52:04.644Z,41.34
2023-05-10T06:54:37.909Z,40.88
2023-05-10T06:57:23.331Z,40.51
2023-05-10T07:00:06.369Z,40.51
2023-05-10T07:02:41.689Z,40.41
2023-05-10T07:13:05.684Z,40.69
2023-05-10T07:15:45.646Z,40.81
2023-05-10T07:18:20.886Z,40.54
2023-05-10T07:20:54.676Z,40.29
2023-05-10T07:23:28.011Z,40.20
2023-05-10T07:26:01.718Z,40.14
2023-05-10T07:28:34.890Z,39.85
2023-05-10T07:41:25.615Z,39.97
2023-05-10T07:44:05.625Z,39.89
2023-05-10T07:46:39.172Z,40.03
2023-05-10T07:49:12.670Z,40.05
2023-05-10T07:51:46.058Z,40.04
2023-05-10T07:54:19.668Z,39.73
2023-05-10T08:07:32.674Z,39.93
2023-05-10T08:10:08.704Z,39.62
2023-05-10T08:12:42.666Z,39.77
2023-05-10T08:15:16.112Z,40.67
2023-05-10T08:17:49.657Z,40.63
2023-05-10T08:20:23.167Z,40.51
2023-05-10T08:22:58.686Z,40.80
2023-05-10T08:33:24.618Z,40.23
2023-05-10T08:36:04.644Z,40.67
2023-05-10T08:38:40.334Z,40.67
2023-05-10T08:41:13.627Z,40.30
2023-05-10T08:43:47.715Z,40.57
2023-05-10T08:46:24.708Z,40.29
2023-05-10T08:49:03.178Z,40.39
2023-05-10T09:02:04.622Z,40.17
2023-05-10T09:04:45.756Z,40.44
2023-05-10T09:07:20.147Z,40.37
2023-05-10T09:09:54.626Z,40.57
2023-05-10T09:12:28.332Z,40.24
2023-05-10T09:28:58.646Z,39.12
2023-05-10T09:31:47.319Z,39.36
2023-05-10T09:34:38.650Z,40.31
2023-05-10T09:37:11.908Z,39.98
2023-05-10T09:39:45.657Z,40.24
2023-05-10T09:42:19.316Z,40.51
2023-05-10T09:55:09.612Z,38.25
2023-05-10T09:57:49.670Z,38.70
2023-05-10T10:00:23.007Z,39.47
2023-05-10T10:03:03.678Z,38.80
2023-05-10T10:05:36.907Z,37.74
2023-05-10T10:08:13.650Z,38.57
2023-05-10T10:21:26.671Z,38.61
2023-05-10T10:23:59.922Z,37.58
2023-05-10T10:26:33.640Z,37.12
2023-05-10T10:29:24.112Z,37.49
2023-05-10T10:32:24.693Z,37.45
2023-05-10T10:49:17.626Z,35.93
2023-05-10T10:52:30.647Z,38.01
2023-05-10T10:55:07.890Z,36.48
2023-05-10T10:57:56.639Z,36.52
2023-05-10T11:00:31.713Z,37.37
2023-05-10T11:03:10.706Z,37.76
2023-05-10T11:16:25.776Z,35.51
2023-05-10T11:19:02.776Z,35.17
2023-05-10T11:21:53.653Z,35.04
2023-05-10T11:24:29.054Z,36.93
2023-05-10T11:27:03.660Z,35.34
2023-05-10T11:29:36.938Z,36.41
2023-05-10T11:42:27.686Z,35.84
2023-05-10T11:45:08.724Z,34.72
2023-05-10T11:47:42.862Z,35.46
2023-05-10T11:52:51.963Z,33.86
2023-05-10T12:09:13.647Z,33.32
2023-05-10T12:11:46.879Z,33.11
2023-05-10T12:14:21.624Z,33.32
2023-05-10T12:16:58.138Z,33.90
2023-05-10T12:19:44.700Z,35.07
2023-05-10T12:22:21.629Z,33.80
2023-05-10T12:35:20.631Z,33.04
2023-05-10T12:38:00.717Z,32.97
2023-05-10T12:40:33.909Z,33.02
2023-05-10T12:43:07.656Z,32.62
2023-05-10T12:45:40.961Z,33.99
2023-05-10T12:48:14.706Z,33.24
2023-05-10T13:01:26.774Z,32.35
2023-05-10T13:03:59.909Z,32.93
2023-05-10T13:06:33.677Z,31.99
2023-05-10T13:09:07.011Z,33.02
2023-05-10T13:11:40.697Z,32.54
2023-05-10T13:14:13.936Z,32.90
2023-05-10T13:27:42.639Z,34.22
2023-05-10T13:30:22.666Z,32.71
2023-05-10T13:32:55.932Z,31.75
2023-05-10T13:35:29.698Z,31.22
2023-05-10T13:38:02.925Z,31.24
2023-05-10T13:40:36.675Z,31.28
2023-05-10T13:43:11.860Z,32.17
2023-05-10T13:56:01.652Z,31.60
2023-05-10T13:58:43.697Z,32.73
2023-05-10T14:01:16.962Z,33.18
2023-05-10T14:03:50.735Z,32.43
2023-05-10T14:06:23.957Z,32.84
2023-05-10T14:08:57.690Z,33.43
2023-05-10T14:22:10.685Z,33.11
2023-05-10T14:24:43.930Z,32.48
2023-05-10T14:27:17.664Z,32.42
2023-05-10T14:29:51.034Z,32.60
2023-05-10T14:32:24.685Z,32.53
2023-05-10T14:49:01.662Z,33.44
2023-05-10T14:51:41.675Z,33.12
2023-05-10T14:54:14.985Z,32.86
2023-05-10T14:56:48.685Z,33.16
2023-05-10T14:59:21.929Z,33.37
2023-05-10T15:01:55.686Z,33.83
2023-05-10T15:04:31.856Z,34.52
2023-05-10T15:14:40.705Z,35.16
2023-05-10T15:17:13.966Z,34.74
2023-05-10T15:19:49.653Z,34.12
2023-05-10T15:22:22.934Z,34.02
2023-05-10T15:24:57.797Z,34.43
2023-05-10T15:27:31.073Z,34.24
2023-05-10T15:43:46.665Z,34.29
2023-05-10T15:46:19.921Z,34.68
2023-05-10T15:48:53.697Z,34.19
2023-05-10T15:51:26.921Z,33.84
2023-05-10T15:54:06.928Z,33.99
2023-05-10T16:08:02.697Z,33.27
2023-05-10T16:10:37.899Z,33.42
2023-05-10T16:13:11.693Z,33.85
2023-05-10T16:15:45.021Z,33.47
2023-05-10T16:18:18.713Z,33.65
2023-05-10T16:20:53.343Z,33.82
2023-05-10T16:23:26.699Z,33.46
2023-05-10T16:36:38.705Z,33.93
2023-05-10T16:39:11.961Z,34.05
2023-05-10T16:41:45.685Z,34.12
2023-05-10T16:44:20.600Z,33.90
2023-05-10T16:47:09.678Z,33.81
2023-05-10T16:49:43.170Z,33.82
2023-05-10T17:02:33.763Z,33.95
2023-05-10T17:05:14.797Z,33.92
2023-05-10T17:07:48.281Z,33.66
2023-05-10T17:10:21.701Z,33.75
2023-05-10T17:12:54.976Z,33.43
2023-05-10T17:29:10.680Z,34.27
2023-05-10T17:31:43.998Z,34.44
2023-05-10T17:34:18.744Z,34.35
2023-05-10T17:36:51.911Z,34.30
2023-05-10T17:39:25.687Z,34.85
2023-05-10T17:41:59.129Z,35.03
2023-05-10T17:44:34.696Z,35.12
2023-05-10T17:55:04.654Z,36.15
2023-05-10T17:57:44.690Z,36.21
2023-05-10T18:00:20.531Z,36.58
2023-05-10T18:02:53.717Z,36.43
2023-05-10T18:05:27.069Z,36.88
2023-05-10T18:08:00.702Z,36.59
2023-05-10T18:21:57.688Z,37.37
2023-05-10T18:27:15.693Z,37.96
2023-05-10T18:29:49.108Z,37.58
2023-05-10T18:32:22.680Z,38.01
2023-05-10T18:34:57.395Z,38.08
2023-05-10T18:37:32.921Z,37.74
2023-05-10T18:50:42.686Z,38.10
2023-05-10T18:53:17.900Z,38.14
2023-05-10T18:55:51.672Z,38.06
2023-05-10T18:58:27.178Z,38.05
2023-05-10T19:01:00.677Z,37.90
2023-05-10T19:03:34.792Z,38.31
2023-05-10T19:16:24.719Z,37.91
2023-05-10T19:19:04.911Z,37.74
2023-05-10T19:21:38.082Z,37.77
2023-05-10T19:24:12.698Z,38.13
2023-05-10T19:26:46.922Z,37.85
2023-05-10T19:29:20.761Z,38.30
2023-05-10T19:42:34.485Z,38.38
2023-05-10T19:45:10.457Z,38.19
2023-05-10T19:47:43.746Z,38.17
2023-05-10T19:50:17.233Z,38.45
2023-05-10T19:52:50.699Z,38.49
2023-05-10T19:55:29.546Z,38.65
2023-05-10T19:58:11.684Z,38.63
2023-05-10T20:11:21.685Z,38.78
2023-05-10T20:13:57.245Z,38.78
2023-05-10T20:16:37.738Z,38.77
2023-05-10T20:19:11.004Z,38.83
2023-05-10T20:21:44.722Z,38.64
2023-05-10T20:24:18.036Z,38.76
2023-05-10T20:37:08.716Z,38.81
2023-05-10T20:39:50.391Z,39.00
2023-05-10T20:42:24.016Z,38.45
2023-05-10T20:44:57.923Z,38.92
2023-05-10T20:47:31.155Z,39.00
2023-05-10T21:03:01.730Z,39.06
2023-05-10T21:05:34.981Z,38.68
2023-05-10T21:08:08.712Z,38.95
2023-05-10T21:10:41.979Z,38.79
2023-05-10T21:13:15.705Z,39.03
2023-05-10T21:15:49.011Z,38.98
2023-05-10T21:18:24.726Z,38.90
2023-05-10T21:31:34.714Z,39.25
2023-05-10T21:34:09.863Z,39.09
2023-05-10T21:36:43.709Z,39.02
2023-05-10T21:39:17.172Z,39.29
2023-05-10T21:41:50.699Z,38.94
2023-05-10T21:44:23.937Z,39.42
2023-05-10T21:57:14.672Z,39.49
2023-05-10T21:59:54.713Z,39.72
2023-05-10T22:02:28.053Z,39.88
2023-05-10T22:05:01.701Z,39.41
2023-05-10T22:07:34.966Z,39.34
2023-05-10T22:23:05.680Z,39.70
2023-05-10T22:25:39.110Z,39.58
2023-05-10T22:28:12.697Z,39.78
2023-05-10T22:30:46.627Z,39.66
2023-05-10T22:33:19.700Z,39.58
2023-05-10T22:35:52.976Z,39.91
2023-05-10T22:38:28.701Z,39.76
2023-05-10T22:51:39.322Z,39.96
2023-05-10T22:54:14.882Z,39.96
2023-05-10T22:56:48.713Z,40.15
2023-05-10T22:59:22.066Z,40.07
2023-05-10T23:01:55.698Z,40.23
2023-05-10T23:04:29.113Z,40.48
2023-05-10T23:17:19.676Z,40.65
2023-05-10T23:19:59.696Z,40.72
2023-05-10T23:22:32.964Z,41.14
2023-05-10T23:25:06.706Z,41.03
2023-05-10T23:27:39.986Z,40.95
2023-05-10T23:43:55.705Z,41.40
2023-05-10T23:46:28.990Z,41.24
2023-05-10T23:49:02.732Z,41.43
2023-05-10T23:51:35.941Z,41.36
2023-05-10T23:54:09.975Z,41.10
2023-05-10T23:56:44.450Z,41.03
2023-05-10T23:59:19.703Z,41.16
